createdAt,value
2022-10-06T00:01:20.337Z,0.47
2022-10-06T00:03:50.757Z,0.43
2022-10-06T00:06:20.319Z,0.48
2022-10-06T00:08:49.138Z,0.53
2022-10-06T00:11:18.040Z,0.47
2022-10-06T00:13:47.168Z,0.52
2022-10-06T00:16:22.118Z,0.53
2022-10-06T00:18:51.080Z,0.52
2022-10-06T00:21:19.869Z,0.54
2022-10-06T00:23:48.732Z,0.58
2022-10-06T00:26:17.669Z,0.60
2022-10-06T00:28:50.364Z,0.66
2022-10-06T00:31:20.140Z,0.71
2022-10-06T00:33:50.943Z,0.74
2022-10-06T00:36:20.246Z,0.79
2022-10-06T00:38:49.136Z,0.82
2022-10-06T00:41:19.068Z,0.82
2022-10-06T00:43:57.586Z,0.87
2022-10-06T00:46:42.163Z,0.94
2022-10-06T00:49:24.717Z,0.97
2022-10-06T00:51:58.597Z,0.97
2022-10-06T00:54:28.543Z,0.98
2022-10-06T00:56:58.889Z,1.03
2022-10-06T00:59:27.792Z,1.07
2022-10-06T01:02:04.250Z,1.02
2022-10-06T01:04:42.373Z,0.94
2022-10-06T01:07:11.902Z,0.84
2022-10-06T01:09:41.435Z,0.88
2022-10-06T01:12:10.519Z,0.95
2022-10-06T01:14:40.915Z,1.01
2022-10-06T01:17:24.817Z,1.10
2022-10-06T01:20:00.816Z,1.18
2022-10-06T01:22:36.011Z,1.26
2022-10-06T01:25:10.682Z,1.33
2022-10-06T01:27:42.915Z,1.51
2022-10-06T01:30:17.714Z,1.66
2022-10-06T01:32:55.714Z,1.81
2022-10-06T01:35:25.477Z,1.97
2022-10-06T01:37:55.396Z,2.07
2022-10-06T01:40:26.150Z,2.10
2022-10-06T01:42:54.967Z,2.25
2022-10-06T01:45:26.919Z,2.57
2022-10-06T01:47:55.907Z,2.75
2022-10-06T01:50:24.873Z,2.98
2022-10-06T01:52:56.576Z,3.34
2022-10-06T01:55:26.283Z,3.93
2022-10-06T01:57:56.808Z,4.41
2022-10-06T02:00:26.604Z,4.53
2022-10-06T02:02:55.900Z,5.02
2022-10-06T02:05:25.033Z,5.66
2022-10-06T02:07:55.059Z,6.24
2022-10-06T02:10:24.052Z,6.71
2022-10-06T02:12:54.437Z,6.60
2022-10-06T02:15:24.688Z,5.99
2022-10-06T02:17:54.587Z,5.63
2022-10-06T02:20:28.028Z,5.53
2022-10-06T02:22:56.901Z,5.41
2022-10-06T02:25:25.736Z,5.26
2022-10-06T02:27:55.861Z,5.22
2022-10-06T02:30:24.718Z,5.29
2022-10-06T02:32:54.234Z,5.49
2022-10-06T02:35:23.384Z,5.57
2022-10-06T02:37:52.857Z,5.81
2022-10-06T02:40:23.734Z,5.88
2022-10-06T02:42:52.719Z,5.92
2022-10-06T02:45:24.129Z,6.26
2022-10-06T02:47:57.556Z,6.75
2022-10-06T02:50:26.430Z,7.65
2022-10-06T02:52:55.955Z,8.58
2022-10-06T02:55:24.814Z,8.92
2022-10-06T02:57:55.866Z,8.75
2022-10-06T03:00:25.451Z,8.02
2022-10-06T03:02:57.301Z,7.01
2022-10-06T03:05:26.342Z,6.02
2022-10-06T03:07:55.428Z,5.05
2022-10-06T03:10:24.565Z,4.48
2022-10-06T03:12:53.805Z,4.13
2022-10-06T03:15:22.648Z,3.98
2022-10-06T03:17:53.065Z,3.87
2022-10-06T03:20:22.191Z,3.79
2022-10-06T03:22:54.859Z,3.71
2022-10-06T03:25:23.771Z,3.67
2022-10-06T03:27:52.902Z,3.70
2022-10-06T03:30:22.715Z,3.72
2022-10-06T03:32:53.653Z,3.73
2022-10-06T03:35:22.679Z,3.71
2022-10-06T03:37:51.666Z,3.66
2022-10-06T03:40:20.943Z,3.68
2022-10-06T03:42:49.784Z,3.70
2022-10-06T03:45:18.715Z,3.85
2022-10-06T03:47:47.721Z,4.17
2022-10-06T03:50:16.870Z,4.47
2022-10-06T03:52:45.763Z,4.77
2022-10-06T03:55:14.727Z,5.90
2022-10-06T03:57:43.710Z,6.71
2022-10-06T04:00:15.024Z,6.83
2022-10-06T04:02:45.150Z,6.66
2022-10-06T04:05:14.083Z,6.46
2022-10-06T04:07:43.484Z,6.09
2022-10-06T04:10:12.936Z,5.89
2022-10-06T04:12:41.793Z,5.58
2022-10-06T04:15:12.565Z,5.11
2022-10-06T04:17:42.276Z,4.95
2022-10-06T04:20:12.580Z,4.90
2022-10-06T04:22:41.459Z,4.97
2022-10-06T04:25:10.850Z,5.17
2022-10-06T04:27:39.968Z,5.21
2022-10-06T04:30:13.178Z,5.08
2022-10-06T04:32:43.941Z,4.94
2022-10-06T04:35:13.213Z,4.68
2022-10-06T04:37:42.134Z,4.35
2022-10-06T04:40:11.482Z,4.31
2022-10-06T04:42:41.107Z,4.21
2022-10-06T04:45:14.423Z,4.13
2022-10-06T04:47:44.339Z,4.14
2022-10-06T04:50:14.307Z,4.15
2022-10-06T04:53:01.975Z,4.19
2022-10-06T04:55:32.580Z,4.21
2022-10-06T04:58:01.559Z,4.27
2022-10-06T05:00:31.595Z,4.36
2022-10-06T05:03:00.629Z,4.36
2022-10-06T05:05:29.557Z,4.38
2022-10-06T05:07:59.171Z,4.42
2022-10-06T05:10:29.352Z,4.55
2022-10-06T05:12:58.649Z,4.68
2022-10-06T05:15:29.765Z,4.82
2022-10-06T05:17:59.242Z,5.02
2022-10-06T05:20:28.617Z,5.19
2022-10-06T05:22:57.576Z,5.33
2022-10-06T05:25:26.487Z,5.54
2022-10-06T05:27:55.492Z,5.60
2022-10-06T05:30:24.408Z,5.61
2022-10-06T05:32:53.394Z,5.66
2022-10-06T05:35:22.441Z,5.62
2022-10-06T05:37:51.336Z,5.49
2022-10-06T05:40:20.178Z,5.41
2022-10-06T05:42:49.068Z,5.52
2022-10-06T05:45:18.458Z,6.19
2022-10-06T05:47:47.334Z,7.20
2022-10-06T05:50:16.547Z,7.89
2022-10-06T05:52:45.428Z,8.63
2022-10-06T05:55:14.565Z,9.06
2022-10-06T05:57:44.029Z,9.18
2022-10-06T06:00:13.782Z,9.62
2022-10-06T06:02:45.229Z,10.27
2022-10-06T06:05:15.643Z,12.13
2022-10-06T06:07:44.543Z,12.95
2022-10-06T06:10:13.376Z,12.38
2022-10-06T06:12:42.214Z,11.75
2022-10-06T06:15:51.611Z,11.31
2022-10-06T06:18:21.559Z,11.05
2022-10-06T06:21:05.684Z,11.19
2022-10-06T06:23:37.473Z,10.41
2022-10-06T06:26:12.491Z,9.13
2022-10-06T06:28:49.727Z,7.77
2022-10-06T06:31:23.237Z,6.78
2022-10-06T06:33:57.003Z,6.13
2022-10-06T06:36:36.185Z,5.62
2022-10-06T06:39:14.633Z,5.24
2022-10-06T06:41:46.933Z,4.97
2022-10-06T06:44:35.410Z,4.64
2022-10-06T06:47:08.427Z,4.46
2022-10-06T06:49:37.946Z,4.21
2022-10-06T06:52:10.674Z,4.16
2022-10-06T06:54:42.402Z,4.31
2022-10-06T06:57:15.954Z,4.46
2022-10-06T06:59:48.327Z,4.67
2022-10-06T07:02:19.581Z,4.87
2022-10-06T07:04:50.055Z,5.22
2022-10-06T07:07:21.788Z,5.48
2022-10-06T07:09:50.722Z,5.68
2022-10-06T07:12:22.170Z,7.12
2022-10-06T07:15:18.054Z,10.70
2022-10-06T07:18:12.384Z,14.16
2022-10-06T07:21:00.243Z,16.66
2022-10-06T07:23:48.489Z,17.81
2022-10-06T07:26:21.057Z,18.32
2022-10-06T07:28:52.991Z,19.07
2022-10-06T07:31:22.022Z,19.61
2022-10-06T07:33:52.054Z,20.04
2022-10-06T07:36:22.518Z,20.06
2022-10-06T07:38:51.402Z,20.35
2022-10-06T07:41:20.716Z,19.95
2022-10-06T07:43:56.628Z,20.18
2022-10-06T07:46:28.482Z,20.43
2022-10-06T07:49:27.854Z,20.61
2022-10-06T07:51:57.439Z,19.62
2022-10-06T07:54:27.546Z,18.84
2022-10-06T07:57:36.093Z,19.74
2022-10-06T08:00:07.846Z,20.97
2022-10-06T08:02:43.703Z,21.41
2022-10-06T08:05:12.896Z,21.67
2022-10-06T08:07:42.446Z,22.05
2022-10-06T08:10:11.425Z,22.47
2022-10-06T08:12:41.218Z,22.63
2022-10-06T08:15:12.628Z,22.70
2022-10-06T08:17:42.412Z,22.50
2022-10-06T08:20:13.643Z,22.24
2022-10-06T08:22:42.516Z,21.75
2022-10-06T08:25:12.781Z,20.45
2022-10-06T08:27:44.743Z,19.19
2022-10-06T08:30:14.375Z,18.39
2022-10-06T08:32:43.906Z,16.89
2022-10-06T08:35:12.681Z,14.58
2022-10-06T08:37:42.121Z,12.61
2022-10-06T08:40:15.562Z,10.86
2022-10-06T08:42:50.802Z,9.71
2022-10-06T08:45:29.619Z,8.93
2022-10-06T08:48:10.613Z,8.40
2022-10-06T08:51:07.544Z,8.04
2022-10-06T08:53:47.386Z,7.72
2022-10-06T08:56:23.782Z,7.37
2022-10-06T08:59:05.165Z,7.07
2022-10-06T09:01:49.549Z,6.84
2022-10-06T09:04:29.645Z,6.59
2022-10-06T09:07:17.405Z,6.36
2022-10-06T09:10:04.793Z,6.22
2022-10-06T09:12:45.577Z,6.08
2022-10-06T09:15:36.208Z,6.02
2022-10-06T09:18:34.856Z,6.13
2022-10-06T09:21:31.279Z,6.42
2022-10-06T09:24:06.671Z,6.56
2022-10-06T09:26:37.202Z,6.27
2022-10-06T09:29:06.386Z,5.89
2022-10-06T09:31:40.119Z,5.52
2022-10-06T09:34:35.505Z,5.20
2022-10-06T09:37:14.296Z,4.96
2022-10-06T09:39:53.510Z,4.78
2022-10-06T09:42:22.947Z,4.66
2022-10-06T09:44:59.318Z,4.53
2022-10-06T09:47:32.567Z,4.40
2022-10-06T09:50:13.278Z,4.29
2022-10-06T09:53:06.572Z,4.16
2022-10-06T09:55:38.531Z,4.04
2022-10-06T09:58:24.242Z,3.93
2022-10-06T10:01:09.259Z,3.79
2022-10-06T10:04:01.951Z,3.60
2022-10-06T10:06:35.785Z,3.52
2022-10-06T10:09:16.719Z,3.37
2022-10-06T10:12:20.581Z,3.19
2022-10-06T10:14:49.466Z,3.02
2022-10-06T10:17:33.051Z,2.88
2022-10-06T10:20:03.926Z,2.69
2022-10-06T10:22:40.614Z,2.52
2022-10-06T10:25:50.080Z,2.31
2022-10-06T10:28:25.064Z,2.12
2022-10-06T10:30:56.717Z,1.97
2022-10-06T10:33:59.515Z,1.85
2022-10-06T10:36:46.018Z,1.73
2022-10-06T10:39:30.236Z,1.66
2022-10-06T10:42:05.450Z,1.66
2022-10-06T10:44:38.822Z,1.65
2022-10-06T10:47:33.602Z,1.63
2022-10-06T10:50:18.183Z,1.59
2022-10-06T10:52:50.080Z,1.47
2022-10-06T10:55:23.816Z,1.44
2022-10-06T10:57:56.434Z,1.46
2022-10-06T11:00:29.209Z,1.52
2022-10-06T11:02:59.778Z,1.58
2022-10-06T11:05:56.394Z,1.53
2022-10-06T11:08:30.176Z,1.61
2022-10-06T11:11:03.202Z,1.65
2022-10-06T11:13:53.290Z,1.67
2022-10-06T11:16:38.018Z,1.65
2022-10-06T11:19:19.759Z,1.60
2022-10-06T11:22:18.569Z,1.57
2022-10-06T11:25:28.260Z,1.61
2022-10-06T11:28:17.805Z,1.58
2022-10-06T11:31:21.944Z,1.73
2022-10-06T11:34:00.788Z,1.78
2022-10-06T11:36:48.193Z,1.85
2022-10-06T11:39:41.819Z,1.90
2022-10-06T11:42:26.686Z,1.95
2022-10-06T11:45:14.443Z,1.98
2022-10-06T11:48:16.833Z,2.02
2022-10-06T11:50:47.793Z,1.99
2022-10-06T11:53:37.796Z,1.97
2022-10-06T11:56:18.906Z,1.93
2022-10-06T11:58:56.637Z,1.89
2022-10-06T12:01:32.191Z,1.83
2022-10-06T12:04:09.717Z,1.77
2022-10-06T12:06:47.775Z,1.72
2022-10-06T12:09:31.808Z,1.70
2022-10-06T12:12:27.510Z,1.64
2022-10-06T12:18:44.977Z,1.33
2022-10-06T12:21:18.221Z,1.20
2022-10-06T12:24:42.602Z,1.01
2022-10-06T12:27:30.231Z,0.89
2022-10-06T12:30:05.473Z,0.78
2022-10-06T12:32:50.839Z,0.66
2022-10-06T12:35:30.831Z,0.61
2022-10-06T12:38:05.261Z,0.56
2022-10-06T12:40:49.478Z,0.52
2022-10-06T12:43:18.447Z,0.45
2022-10-06T12:46:13.724Z,0.33
2022-10-06T12:49:01.632Z,0.38
2022-10-06T12:51:42.194Z,0.33
2022-10-06T12:54:17.977Z,0.30
2022-10-06T12:57:01.262Z,0.31
2022-10-06T12:59:34.596Z,0.31
2022-10-06T13:02:11.402Z,0.27
2022-10-06T13:04:41.667Z,0.24
2022-10-06T13:07:31.812Z,0.23
2022-10-06T13:10:15.452Z,0.17
2022-10-06T13:12:50.854Z,0.15
2022-10-06T13:15:22.773Z,0.11
2022-10-06T13:18:14.019Z,0.09
2022-10-06T13:20:51.802Z,0.11
2022-10-06T13:23:40.128Z,0.06
2022-10-06T13:26:15.345Z,0.19
2022-10-06T13:28:44.185Z,0.28
2022-10-06T13:31:15.953Z,0.37
2022-10-06T13:33:46.633Z,0.45
2022-10-06T13:36:16.164Z,0.51
2022-10-06T13:38:46.176Z,0.49
2022-10-06T13:41:21.475Z,0.45
2022-10-06T13:43:56.689Z,0.31
2022-10-06T13:46:28.470Z,0.21
2022-10-06T13:49:03.278Z,0.11
2022-10-06T13:51:33.829Z,0.05
2022-10-06T13:54:22.517Z,0.03
2022-10-06T13:56:51.685Z,-0.04
2022-10-06T13:59:29.670Z,-0.13
2022-10-06T14:02:03.145Z,-0.20
2022-10-06T14:04:34.686Z,-0.23
2022-10-06T14:07:06.474Z,-0.28
2022-10-06T14:09:35.548Z,-0.30
2022-10-06T14:12:26.650Z,-0.30
2022-10-06T14:14:55.620Z,-0.23
2022-10-06T14:17:26.719Z,-0.10
2022-10-06T14:19:55.987Z,0.05
2022-10-06T14:22:38.799Z,0.20
2022-10-06T14:25:15.822Z,0.36
2022-10-06T14:27:44.350Z,0.48
2022-10-06T14:30:13.375Z,0.58
2022-10-06T14:32:42.138Z,0.62
2022-10-06T14:35:14.581Z,0.71
2022-10-06T14:37:43.360Z,0.66
2022-10-06T14:40:12.397Z,0.70
2022-10-06T14:42:41.353Z,0.82
2022-10-06T14:45:10.718Z,0.85
2022-10-06T14:47:39.452Z,0.80
2022-10-06T14:50:08.521Z,0.74
2022-10-06T14:52:38.512Z,0.75
2022-10-06T14:55:08.823Z,0.76
2022-10-06T14:57:37.644Z,0.70
2022-10-06T15:00:09.773Z,0.59
2022-10-06T15:02:39.046Z,0.49
2022-10-06T15:05:08.408Z,0.32
2022-10-06T15:07:55.863Z,0.16
2022-10-06T15:10:24.966Z,0.19
2022-10-06T15:12:54.114Z,0.22
2022-10-06T15:15:22.893Z,0.28
2022-10-06T15:17:53.743Z,0.28
2022-10-06T15:20:22.490Z,0.48
2022-10-06T15:22:51.252Z,0.56
2022-10-06T15:25:38.877Z,0.61
2022-10-06T15:28:26.226Z,0.45
2022-10-06T15:30:55.145Z,0.66
2022-10-06T15:33:24.082Z,0.70
2022-10-06T15:36:14.460Z,0.80
2022-10-06T15:38:43.812Z,0.85
2022-10-06T15:41:13.429Z,0.86
2022-10-06T15:43:57.621Z,0.87
2022-10-06T15:46:56.895Z,0.90
2022-10-06T15:49:27.631Z,0.87
2022-10-06T15:51:59.987Z,0.71
2022-10-06T15:54:31.294Z,0.73
2022-10-06T15:57:02.266Z,0.78
2022-10-06T15:59:34.614Z,0.74
2022-10-06T16:02:08.498Z,0.73
2022-10-06T16:04:39.698Z,0.80
2022-10-06T16:07:14.892Z,0.81
2022-10-06T16:09:53.263Z,0.83
2022-10-06T16:12:25.346Z,0.87
2022-10-06T16:14:54.393Z,0.83
2022-10-06T16:17:23.222Z,0.88
2022-10-06T16:19:52.266Z,0.91
2022-10-06T16:22:22.427Z,0.92
2022-10-06T16:24:51.293Z,0.87
2022-10-06T16:27:20.209Z,0.93
2022-10-06T16:29:49.286Z,0.94
2022-10-06T16:32:18.285Z,0.95
2022-10-06T16:34:50.993Z,0.96
2022-10-06T16:37:19.902Z,0.87
2022-10-06T16:39:48.621Z,0.92
2022-10-06T16:42:18.612Z,0.94
2022-10-06T16:44:47.527Z,0.92
2022-10-06T16:47:16.323Z,0.84
2022-10-06T16:49:45.268Z,0.77
2022-10-06T16:52:14.192Z,0.75
2022-10-06T16:54:43.008Z,0.77
2022-10-06T16:57:11.890Z,0.76
2022-10-06T16:59:45.786Z,0.75
2022-10-06T17:02:16.460Z,0.75
2022-10-06T17:04:45.578Z,0.71
2022-10-06T17:07:14.403Z,0.73
2022-10-06T17:09:56.113Z,0.66
2022-10-06T17:12:31.970Z,0.60
2022-10-06T17:15:00.691Z,0.55
2022-10-06T17:17:29.502Z,0.39
2022-10-06T17:19:58.455Z,0.32
2022-10-06T17:22:27.342Z,0.26
2022-10-06T17:24:56.111Z,0.17
2022-10-06T17:27:29.064Z,0.07
2022-10-06T17:29:57.956Z,0.00
2022-10-06T17:32:26.764Z,-0.11
2022-10-06T17:34:55.848Z,-0.11
2022-10-06T17:37:24.574Z,-0.20
2022-10-06T17:39:53.443Z,-0.19
2022-10-06T17:42:22.326Z,-0.26
2022-10-06T17:44:53.551Z,-0.32
2022-10-06T17:47:22.320Z,-0.39
2022-10-06T17:49:51.349Z,-0.44
2022-10-06T17:52:24.254Z,-0.56
2022-10-06T17:54:54.936Z,-0.52
2022-10-06T17:57:23.706Z,-0.54
2022-10-06T17:59:53.408Z,-0.55
2022-10-06T18:02:23.123Z,-0.55
2022-10-06T18:04:54.011Z,-0.59
2022-10-06T18:07:22.839Z,-0.59
2022-10-06T18:10:11.555Z,-0.60
2022-10-06T18:12:40.426Z,-0.59
2022-10-06T18:15:12.857Z,-0.58
2022-10-06T18:17:42.895Z,-0.60
2022-10-06T18:20:12.094Z,-0.72
2022-10-06T18:22:41.072Z,-0.66
2022-10-06T18:25:17.148Z,-0.68
2022-10-06T18:27:48.325Z,-0.68
2022-10-06T18:30:17.410Z,-0.70
2022-10-06T18:38:27.837Z,-0.70
2022-10-06T18:41:05.573Z,-0.66
2022-10-06T18:43:34.314Z,-0.59
2022-10-06T18:46:24.514Z,-0.58
2022-10-06T18:48:56.879Z,-0.51
2022-10-06T18:51:28.853Z,-0.45
2022-10-06T18:53:59.479Z,-0.31
2022-10-06T18:56:32.121Z,-0.21
2022-10-06T18:59:09.326Z,-0.11
2022-10-06T19:01:40.910Z,-0.02
2022-10-06T19:04:10.826Z,0.10
2022-10-06T19:06:41.069Z,0.12
2022-10-06T19:09:09.803Z,0.27
2022-10-06T19:11:53.862Z,0.32
2022-10-06T19:14:26.061Z,0.33
2022-10-06T19:17:03.868Z,0.30
2022-10-06T19:19:33.344Z,0.26
2022-10-06T19:22:04.316Z,0.28
2022-10-06T19:24:44.752Z,0.32
2022-10-06T19:27:16.472Z,0.34
2022-10-06T19:29:47.518Z,0.52
2022-10-06T19:32:19.032Z,0.58
2022-10-06T19:34:49.025Z,0.65
2022-10-06T19:37:17.957Z,0.75
2022-10-06T19:39:50.596Z,0.79
2022-10-06T19:42:38.949Z,0.82
2022-10-06T19:45:09.263Z,0.89
2022-10-06T19:47:38.047Z,0.86
2022-10-06T19:50:12.065Z,0.95
2022-10-06T19:52:42.827Z,0.96
2022-10-06T19:55:11.756Z,0.93
2022-10-06T19:57:40.755Z,0.98
2022-10-06T20:00:11.475Z,1.01
2022-10-06T20:02:44.822Z,1.00
2022-10-06T20:05:15.768Z,0.96
2022-10-06T20:07:46.914Z,0.95
2022-10-06T20:10:16.203Z,0.93
2022-10-06T20:12:45.030Z,0.90
2022-10-06T20:15:14.730Z,0.91
2022-10-06T20:17:44.886Z,0.93
2022-10-06T20:20:14.942Z,0.91
2022-10-06T20:22:43.741Z,0.90
2022-10-06T20:25:12.508Z,0.89
2022-10-06T20:27:41.506Z,0.97
2022-10-06T20:30:11.725Z,0.98
2022-10-06T20:32:41.692Z,0.98
2022-10-06T20:35:10.443Z,1.02
2022-10-06T20:37:42.492Z,0.99
2022-10-06T20:40:29.928Z,1.01
2022-10-06T20:42:59.983Z,0.99
2022-10-06T20:45:30.494Z,0.98
2022-10-06T20:48:00.683Z,0.80
2022-10-06T20:50:32.659Z,0.88
2022-10-06T20:53:01.486Z,0.90
2022-10-06T20:55:30.407Z,0.93
2022-10-06T20:57:59.369Z,0.94
2022-10-06T21:00:29.224Z,1.04
2022-10-06T21:02:58.286Z,1.13
2022-10-06T21:05:27.105Z,1.21
2022-10-06T21:07:55.893Z,1.24
2022-10-06T21:10:24.599Z,1.23
2022-10-06T21:12:53.372Z,1.23
2022-10-06T21:15:22.244Z,1.25
2022-10-06T21:17:50.972Z,1.25
2022-10-06T21:20:19.742Z,1.30
2022-10-06T21:22:48.509Z,1.32
2022-10-06T21:25:17.279Z,1.32
2022-10-06T21:27:47.729Z,1.25
2022-10-06T21:30:16.520Z,1.28
2022-10-06T21:32:45.279Z,1.30
2022-10-06T21:35:13.994Z,1.32
2022-10-06T21:37:42.999Z,1.28
2022-10-06T21:40:11.965Z,1.29
2022-10-06T21:42:40.950Z,1.30
2022-10-06T21:45:10.100Z,1.35
2022-10-06T21:47:38.875Z,1.31
2022-10-06T21:50:08.104Z,1.38
2022-10-06T21:52:36.878Z,1.37
2022-10-06T21:55:06.074Z,1.39
2022-10-06T21:57:34.827Z,1.36
2022-10-06T22:00:04.546Z,1.38
2022-10-06T22:02:42.210Z,1.36
2022-10-06T22:05:11.133Z,1.24
2022-10-06T22:07:40.075Z,1.31
2022-10-06T22:10:09.387Z,1.27
2022-10-06T22:12:39.398Z,1.24
2022-10-06T22:15:08.499Z,1.20
2022-10-06T22:17:37.273Z,1.24
2022-10-06T22:20:06.642Z,1.20
2022-10-06T22:22:35.391Z,1.18
2022-10-06T22:25:04.348Z,1.17
2022-10-06T22:27:33.460Z,1.17
2022-10-06T22:30:02.234Z,1.15
2022-10-06T22:32:32.108Z,1.12
2022-10-06T22:35:02.852Z,1.13
2022-10-06T22:37:32.255Z,1.10
2022-10-06T22:40:05.375Z,1.11
2022-10-06T22:42:36.683Z,1.02
2022-10-06T22:45:06.042Z,1.07
2022-10-06T22:47:34.796Z,1.10
2022-10-06T22:50:03.626Z,1.10
2022-10-06T22:52:32.463Z,1.12
2022-10-06T22:55:01.232Z,1.10
2022-10-06T22:57:30.194Z,1.15
2022-10-06T22:59:58.962Z,1.12
2022-10-06T23:02:28.505Z,1.12
2022-10-06T23:04:57.310Z,1.17
2022-10-06T23:07:26.308Z,1.13
2022-10-06T23:09:55.145Z,1.12
2022-10-06T23:12:24.027Z,1.14
2022-10-06T23:14:52.715Z,1.13
2022-10-06T23:17:21.507Z,1.11
2022-10-06T23:19:50.284Z,1.11
2022-10-06T23:22:19.101Z,1.10
2022-10-06T23:24:47.825Z,1.03
2022-10-06T23:27:16.572Z,0.94
2022-10-06T23:29:45.403Z,0.84
2022-10-06T23:32:14.406Z,0.75
2022-10-06T23:34:43.238Z,0.69
2022-10-06T23:37:12.157Z,0.61
2022-10-06T23:39:41.059Z,0.62
2022-10-06T23:42:10.366Z,0.73
2022-10-06T23:44:39.321Z,0.86
2022-10-06T23:47:08.467Z,0.95
2022-10-06T23:49:37.242Z,1.02
2022-10-06T23:52:06.010Z,1.08
2022-10-06T23:54:35.129Z,1.10
2022-10-06T23:57:04.413Z,1.11
2022-10-06T23:59:33.272Z,1.11
